KELN

Bowers Field Airport

Ellensburg, Washington, USA
METAR KELN 150653Z AUTO 24003KT 10SM SCT055 BKN080 02/00 A2982 RMK AO2 RAB0556E02FZRAE0556 SLP111 P0000 I1000 T00220000 $
Observed Flight Rules
Dec-15 @ 06:53 UTC (21 minutes ago) Visual Flight Rules
Wind Visibility Clouds
240° at 3 knots 10 miles
  • Scattered at 5,500' AGL
  • Broken at 8,000' AGL
Temperatures Readings Precipitation
Current 2°C / 36°F
Dewpoint 0°C / 32°F
Humidity 87%
Altimeter 29.82" Hg
Pressure 1011.1 hPa
Elevation 519
Current Rain 0.005
METAR KELN 150653Z AUTO 24003KT 10SM SCT055 BKN080 02/00 A2982 RMK AO2 RAB0556E02FZRAE0556 SLP111 P0000 I1000 T00220000 $
Observed Flight Rules
Dec-15 @ 06:53 UTC
(21 minutes ago)
VFR
Wind Visibility
240° at 3 knots 10 miles
Clouds
  • Scattered at 5,500' AGL
  • Broken at 8,000' AGL
Temperature Dewpoint
2°C / 36°F 0°C / 32°F
Humidity Altimeter Pressure
87% 29.82" Hg 1011.1 hPa
Current Rain
0.005